createdAt,value
2023-05-16T00:01:38.346Z,22.87
2023-05-16T00:04:07.456Z,26.90
2023-05-16T00:06:37.254Z,27.17
2023-05-16T00:09:05.384Z,21.53
2023-05-16T00:11:33.535Z,24.33
2023-05-16T00:14:02.512Z,25.17
2023-05-16T00:16:30.701Z,23.20
2023-05-16T00:18:59.870Z,25.57
2023-05-16T00:21:28.138Z,26.10
2023-05-16T00:23:57.570Z,20.00
2023-05-16T00:26:26.285Z,23.30
2023-05-16T00:28:54.357Z,25.13
2023-05-16T00:31:22.590Z,22.90
2023-05-16T00:33:53.021Z,25.77
2023-05-16T00:36:23.713Z,19.60
2023-05-16T00:38:52.134Z,20.20
2023-05-16T00:41:21.873Z,23.07
2023-05-16T00:43:50.001Z,20.83
2023-05-16T00:46:18.221Z,20.37
2023-05-16T00:48:46.538Z,22.03
2023-05-16T00:51:14.699Z,19.80
2023-05-16T00:53:43.250Z,18.80
2023-05-16T00:56:22.074Z,19.27
2023-05-16T00:58:51.236Z,20.47
2023-05-16T01:01:21.695Z,20.37
2023-05-16T01:03:50.666Z,17.00
2023-05-16T01:06:18.959Z,19.30
2023-05-16T01:08:47.159Z,19.60
2023-05-16T01:11:24.158Z,22.03
2023-05-16T01:14:01.726Z,23.63
2023-05-16T01:16:37.558Z,14.57
2023-05-16T01:19:17.588Z,18.50
2023-05-16T01:21:53.316Z,18.40
2023-05-16T01:24:28.412Z,21.67
2023-05-16T01:27:00.130Z,21.77
2023-05-16T01:29:28.595Z,22.40
2023-05-16T01:31:58.269Z,22.80
2023-05-16T01:34:26.887Z,26.63
2023-05-16T01:37:08.805Z,23.10
2023-05-16T01:39:43.178Z,20.83
2023-05-16T01:42:16.213Z,21.77
2023-05-16T01:44:49.112Z,21.60
2023-05-16T01:47:19.850Z,21.87
2023-05-16T01:49:59.383Z,23.07
2023-05-16T01:52:32.285Z,20.27
2023-05-16T01:55:04.273Z,24.53
2023-05-16T01:57:35.536Z,19.80
2023-05-16T02:00:03.891Z,18.97
2023-05-16T02:02:42.292Z,22.47
2023-05-16T02:05:10.757Z,22.50
2023-05-16T02:07:39.056Z,20.70
2023-05-16T02:10:09.378Z,22.90
2023-05-16T02:12:38.898Z,21.10
2023-05-16T02:15:08.175Z,21.30
2023-05-16T02:17:36.476Z,22.27
2023-05-16T02:20:07.229Z,21.70
2023-05-16T02:22:36.137Z,23.50
2023-05-16T02:25:05.025Z,24.33
2023-05-16T02:27:33.517Z,18.80
2023-05-16T02:30:03.026Z,18.47
2023-05-16T02:32:31.181Z,18.27
2023-05-16T02:34:59.360Z,16.77
2023-05-16T02:37:27.534Z,20.33
2023-05-16T02:39:55.660Z,20.93
2023-05-16T02:42:23.756Z,28.67
2023-05-16T02:44:51.818Z,18.53
2023-05-16T02:47:21.352Z,23.47
2023-05-16T02:49:49.536Z,22.73
2023-05-16T02:52:17.672Z,25.47
2023-05-16T02:54:51.887Z,27.10
2023-05-16T02:57:28.318Z,23.73
2023-05-16T02:59:56.782Z,25.37
2023-05-16T03:02:26.402Z,22.20
2023-05-16T03:04:54.598Z,23.13
2023-05-16T03:07:22.981Z,23.10
2023-05-16T03:09:51.229Z,25.87
2023-05-16T03:12:19.865Z,25.13
2023-05-16T03:14:47.956Z,24.50
2023-05-16T03:17:16.074Z,28.20
2023-05-16T03:19:45.550Z,27.73
2023-05-16T03:22:14.420Z,22.60
2023-05-16T03:24:44.874Z,19.80
2023-05-16T03:27:13.243Z,26.07
2023-05-16T03:29:41.333Z,24.27
2023-05-16T03:32:10.946Z,25.93
2023-05-16T03:34:39.682Z,20.80
2023-05-16T03:37:11.010Z,16.87
2023-05-16T03:39:39.123Z,21.10
2023-05-16T03:42:07.592Z,19.67
2023-05-16T03:44:35.744Z,22.50
2023-05-16T03:47:03.885Z,23.60
2023-05-16T03:49:31.995Z,23.20
2023-05-16T03:52:00.157Z,22.70
2023-05-16T03:54:29.633Z,20.57
2023-05-16T03:56:57.749Z,17.97
2023-05-16T03:59:25.869Z,16.27
2023-05-16T04:01:54.068Z,20.40
2023-05-16T04:04:22.231Z,16.13
2023-05-16T04:06:50.350Z,14.73
2023-05-16T04:09:18.716Z,15.20
2023-05-16T04:11:48.453Z,12.53
2023-05-16T04:14:16.730Z,11.50
2023-05-16T04:16:44.890Z,14.50
2023-05-16T04:19:13.191Z,11.57
2023-05-16T04:21:41.411Z,13.53
2023-05-16T04:24:09.918Z,10.13
2023-05-16T04:26:38.270Z,11.37
2023-05-16T04:29:08.109Z,10.40
2023-05-16T04:31:37.114Z,10.37
2023-05-16T04:34:05.906Z,13.30
2023-05-16T04:36:35.547Z,10.07
2023-05-16T04:39:03.660Z,8.23
2023-05-16T04:41:31.853Z,8.23
2023-05-16T04:44:00.367Z,9.40
2023-05-16T04:46:29.977Z,6.73
2023-05-16T04:48:58.202Z,7.67
2023-05-16T04:51:26.550Z,8.40
2023-05-16T04:53:54.727Z,4.53
2023-05-16T04:56:23.157Z,3.90
2023-05-16T04:58:51.247Z,5.33
2023-05-16T05:01:19.582Z,3.73
2023-05-16T05:03:49.075Z,5.33
2023-05-16T05:06:17.480Z,3.70
2023-05-16T05:08:45.565Z,2.97
2023-05-16T05:11:13.782Z,4.00
2023-05-16T05:13:41.883Z,3.43
2023-05-16T05:16:10.072Z,4.47
2023-05-16T05:18:38.245Z,3.63
2023-05-16T05:21:07.700Z,2.93
2023-05-16T05:23:35.830Z,4.37
2023-05-16T05:26:04.007Z,2.50
2023-05-16T05:28:32.119Z,3.57
2023-05-16T05:31:00.220Z,3.43
2023-05-16T05:33:29.360Z,4.53
2023-05-16T05:35:57.620Z,3.97
2023-05-16T05:38:27.070Z,2.30
2023-05-16T05:40:55.197Z,3.90
2023-05-16T05:43:23.267Z,1.80
2023-05-16T05:45:51.484Z,2.00
2023-05-16T05:48:19.693Z,2.20
2023-05-16T05:50:47.986Z,1.60
2023-05-16T05:53:16.140Z,1.53
2023-05-16T05:55:45.606Z,2.63
2023-05-16T05:58:13.815Z,1.20
2023-05-16T06:00:41.896Z,2.57
2023-05-16T06:03:10.096Z,1.40
2023-05-16T06:05:38.288Z,1.20
2023-05-16T06:08:06.594Z,0.80
2023-05-16T06:10:34.699Z,1.10
2023-05-16T06:13:04.179Z,1.00
2023-05-16T06:15:32.419Z,0.80
2023-05-16T06:18:00.585Z,0.90
2023-05-16T06:20:28.760Z,2.30
2023-05-16T06:22:56.897Z,2.93
2023-05-16T06:25:25.136Z,0.70
2023-05-16T06:27:53.524Z,0.70
2023-05-16T06:30:22.993Z,0.80
2023-05-16T06:32:51.411Z,0.70
2023-05-16T06:35:19.694Z,1.30
2023-05-16T06:37:47.812Z,1.00
2023-05-16T06:40:15.949Z,1.53
2023-05-16T06:42:44.074Z,2.10
2023-05-16T06:45:13.645Z,1.60
2023-05-16T06:47:43.321Z,1.00
2023-05-16T06:50:12.015Z,0.70
2023-05-16T06:52:40.188Z,1.13
2023-05-16T06:55:08.967Z,0.80
2023-05-16T06:57:37.134Z,0.90
2023-05-16T07:00:06.357Z,0.60
2023-05-16T07:02:34.778Z,0.83
2023-05-16T07:05:05.128Z,0.80
2023-05-16T07:07:33.310Z,0.60
2023-05-16T07:10:01.428Z,1.90
2023-05-16T07:12:29.580Z,0.60
2023-05-16T07:14:57.769Z,0.70
2023-05-16T07:17:26.529Z,0.70
2023-05-16T07:19:54.700Z,0.60
2023-05-16T07:22:24.213Z,0.83
2023-05-16T07:24:54.350Z,0.80
2023-05-16T07:27:23.772Z,1.67
2023-05-16T07:29:51.970Z,0.60
2023-05-16T07:32:20.458Z,1.00
2023-05-16T07:34:50.874Z,0.73
2023-05-16T07:37:20.555Z,0.80
2023-05-16T07:39:50.111Z,0.60
2023-05-16T07:42:18.246Z,0.63
2023-05-16T07:44:46.472Z,0.60
2023-05-16T07:47:14.755Z,0.60
2023-05-16T07:49:42.897Z,0.60
2023-05-16T07:52:11.150Z,1.10
2023-05-16T07:54:39.408Z,0.93
2023-05-16T07:57:09.075Z,0.90
2023-05-16T07:59:37.289Z,1.20
2023-05-16T08:02:05.863Z,1.90
2023-05-16T08:04:34.247Z,5.63
2023-05-16T08:07:02.603Z,0.70
2023-05-16T08:09:31.380Z,1.80
2023-05-16T08:12:03.455Z,0.90
2023-05-16T08:14:33.475Z,1.17
2023-05-16T08:17:04.596Z,0.93
2023-05-16T08:19:32.987Z,0.60
2023-05-16T08:22:01.248Z,0.80
2023-05-16T08:24:29.471Z,1.43
2023-05-16T08:26:57.685Z,0.70
2023-05-16T08:29:26.246Z,1.00
2023-05-16T08:31:55.772Z,1.40
2023-05-16T08:34:24.167Z,1.83
2023-05-16T08:36:52.325Z,0.60
2023-05-16T08:39:20.450Z,1.27
2023-05-16T08:41:48.667Z,1.17
2023-05-16T08:44:21.475Z,0.90
2023-05-16T08:46:53.216Z,1.00
2023-05-16T08:49:23.993Z,1.00
2023-05-16T08:51:57.755Z,1.27
2023-05-16T08:54:28.184Z,1.40
2023-05-16T08:56:59.232Z,3.10
2023-05-16T08:59:28.261Z,0.70
2023-05-16T09:01:56.731Z,1.77
2023-05-16T09:04:27.721Z,1.93
2023-05-16T09:06:56.216Z,1.50
2023-05-16T09:09:25.395Z,2.03
2023-05-16T09:11:53.557Z,2.30
2023-05-16T09:14:21.723Z,1.33
2023-05-16T09:17:05.006Z,0.97
2023-05-16T09:19:41.603Z,1.57
2023-05-16T09:22:12.422Z,0.93
2023-05-16T09:24:41.069Z,8.63
2023-05-16T09:27:10.524Z,12.93
2023-05-16T09:29:41.143Z,0.90
2023-05-16T09:32:14.833Z,3.20
2023-05-16T09:34:48.897Z,2.20
2023-05-16T09:37:17.413Z,2.73
2023-05-16T09:39:48.518Z,1.57
2023-05-16T09:42:17.758Z,3.07
2023-05-16T09:44:48.556Z,2.33
2023-05-16T09:47:17.468Z,2.50
2023-05-16T09:49:48.311Z,3.30
2023-05-16T09:52:17.365Z,1.33
2023-05-16T09:54:48.747Z,10.30
2023-05-16T09:57:19.711Z,3.63
2023-05-16T09:59:47.929Z,11.43
2023-05-16T10:02:16.305Z,4.97
2023-05-16T10:04:46.567Z,4.20
2023-05-16T10:07:16.318Z,6.73
2023-05-16T10:09:46.264Z,3.87
2023-05-16T10:12:16.372Z,5.60
2023-05-16T10:14:46.684Z,4.83
2023-05-16T10:17:17.056Z,4.20
2023-05-16T10:19:47.743Z,4.90
2023-05-16T10:22:17.258Z,2.70
2023-05-16T10:24:49.560Z,4.00
2023-05-16T10:27:19.422Z,6.40
2023-05-16T10:32:24.546Z,6.23
2023-05-16T10:34:55.675Z,2.20
2023-05-16T10:37:24.880Z,5.30
2023-05-16T10:39:54.174Z,10.13
2023-05-16T10:42:22.532Z,5.77
2023-05-16T10:45:01.907Z,3.00
2023-05-16T10:47:32.928Z,4.10
2023-05-16T10:50:02.534Z,3.03
2023-05-16T10:52:34.930Z,2.67
2023-05-16T10:55:05.594Z,2.93
2023-05-16T10:57:36.638Z,5.67
2023-05-16T11:00:10.364Z,1.90
2023-05-16T11:02:42.768Z,4.50
2023-05-16T11:05:19.405Z,3.60
2023-05-16T11:08:05.308Z,2.77
2023-05-16T11:10:35.978Z,6.37
2023-05-16T11:13:08.415Z,3.97
2023-05-16T11:15:36.569Z,4.70
2023-05-16T11:18:09.423Z,4.13
2023-05-16T11:20:40.961Z,6.40
2023-05-16T11:23:26.954Z,4.07
2023-05-16T11:25:57.452Z,2.93
2023-05-16T11:28:27.160Z,7.17
2023-05-16T11:30:58.199Z,3.03
2023-05-16T11:33:27.755Z,7.50
2023-05-16T11:36:15.192Z,2.57
2023-05-16T11:38:44.677Z,1.23
2023-05-16T11:41:15.463Z,2.67
2023-05-16T11:43:45.813Z,4.13
2023-05-16T11:46:14.159Z,0.93
2023-05-16T11:48:43.029Z,0.90
2023-05-16T11:51:14.773Z,0.90
2023-05-16T11:53:43.023Z,1.83
2023-05-16T11:56:11.226Z,0.90
2023-05-16T11:58:39.749Z,1.27
2023-05-16T12:01:08.244Z,3.40
2023-05-16T12:03:37.192Z,4.60
2023-05-16T12:06:06.107Z,3.13
2023-05-16T12:08:35.872Z,3.63
2023-05-16T12:11:04.104Z,4.93
2023-05-16T12:13:32.690Z,4.10
2023-05-16T12:16:00.929Z,2.00
2023-05-16T12:18:29.138Z,3.57
2023-05-16T12:20:57.318Z,2.00
2023-05-16T12:23:29.299Z,3.20
2023-05-16T12:26:01.988Z,1.50
2023-05-16T12:28:34.713Z,3.20
2023-05-16T12:31:03.040Z,1.17
2023-05-16T12:33:31.314Z,4.73
2023-05-16T12:36:01.724Z,6.73
2023-05-16T12:38:30.035Z,2.50
2023-05-16T12:41:00.410Z,1.10
2023-05-16T12:43:28.792Z,2.93
2023-05-16T12:45:58.432Z,4.73
2023-05-16T12:48:35.724Z,1.60
2023-05-16T12:51:14.781Z,4.40
2023-05-16T12:53:47.367Z,1.77
2023-05-16T12:56:24.296Z,3.63
2023-05-16T12:58:52.537Z,4.50
2023-05-16T13:01:20.708Z,3.47
2023-05-16T13:03:48.991Z,2.73
2023-05-16T13:06:17.525Z,4.40
2023-05-16T13:08:46.150Z,1.10
2023-05-16T13:11:14.459Z,3.80
2023-05-16T13:13:43.988Z,7.93
2023-05-16T13:16:12.219Z,0.90
2023-05-16T13:18:40.437Z,2.40
2023-05-16T13:21:11.500Z,7.70
2023-05-16T13:23:39.671Z,1.40
2023-05-16T13:26:07.861Z,6.00
2023-05-16T13:28:36.405Z,2.07
2023-05-16T13:31:06.001Z,2.27
2023-05-16T13:33:36.090Z,1.37
2023-05-16T13:36:04.433Z,3.80
2023-05-16T13:38:32.531Z,2.80
2023-05-16T13:41:01.071Z,4.20
2023-05-16T13:43:29.236Z,4.27
2023-05-16T13:45:57.504Z,0.80
2023-05-16T13:48:27.484Z,1.37
2023-05-16T13:50:55.964Z,1.37
2023-05-16T13:53:24.530Z,2.60
2023-05-16T13:55:52.736Z,3.00
2023-05-16T13:58:21.068Z,1.83
2023-05-16T14:00:49.706Z,2.40
2023-05-16T14:03:18.204Z,2.50
2023-05-16T14:05:49.673Z,4.00
2023-05-16T14:08:17.831Z,4.03
2023-05-16T14:10:45.984Z,6.30
2023-05-16T14:13:14.158Z,6.20
2023-05-16T14:15:42.330Z,2.87
2023-05-16T14:18:10.598Z,1.23
2023-05-16T14:20:38.728Z,1.33
2023-05-16T14:23:08.188Z,3.03
2023-05-16T14:25:36.374Z,0.90
2023-05-16T14:28:04.653Z,4.90
2023-05-16T14:30:32.848Z,2.63
2023-05-16T14:33:01.329Z,1.20
2023-05-16T14:35:29.894Z,1.00
2023-05-16T14:37:58.311Z,0.80
2023-05-16T14:40:27.950Z,1.47
2023-05-16T14:42:56.121Z,3.40
2023-05-16T14:45:24.311Z,1.53
2023-05-16T14:47:52.813Z,2.30
2023-05-16T14:50:21.152Z,5.57
2023-05-16T14:52:49.984Z,1.40
2023-05-16T14:55:18.219Z,4.30
2023-05-16T14:57:50.446Z,1.10
2023-05-16T15:00:26.405Z,1.07
2023-05-16T15:02:54.895Z,3.47
2023-05-16T15:05:25.610Z,5.13
2023-05-16T15:07:53.862Z,4.37
2023-05-16T15:10:22.046Z,0.93
2023-05-16T15:12:51.601Z,3.60
2023-05-16T15:15:19.869Z,3.17
2023-05-16T15:17:48.033Z,1.33
2023-05-16T15:20:16.301Z,1.90
2023-05-16T15:22:44.495Z,3.47
2023-05-16T15:25:12.692Z,4.80
2023-05-16T15:27:41.238Z,1.10
2023-05-16T15:30:12.341Z,2.33
2023-05-16T15:32:40.680Z,4.43
2023-05-16T15:35:09.605Z,0.87
2023-05-16T15:37:37.789Z,3.27
2023-05-16T15:40:08.343Z,3.07
2023-05-16T15:42:36.496Z,1.90
2023-05-16T15:45:05.031Z,1.20
2023-05-16T15:47:34.526Z,3.33
2023-05-16T15:50:02.718Z,3.47
2023-05-16T15:52:32.692Z,1.27
2023-05-16T15:55:01.341Z,2.50
2023-05-16T15:57:29.827Z,2.63
2023-05-16T15:59:58.110Z,1.90
2023-05-16T16:02:26.541Z,1.47
2023-05-16T16:04:56.175Z,1.33
2023-05-16T16:07:24.768Z,1.97
2023-05-16T16:09:52.914Z,8.17
2023-05-16T16:12:21.469Z,2.27
2023-05-16T16:14:50.335Z,2.13
2023-05-16T16:17:18.634Z,0.90
2023-05-16T16:19:46.927Z,4.17
2023-05-16T16:22:16.782Z,1.00
2023-05-16T16:24:44.960Z,3.33
2023-05-16T16:27:13.074Z,1.23
2023-05-16T16:29:41.212Z,1.83
2023-05-16T16:32:09.490Z,5.17
2023-05-16T16:34:37.633Z,1.60
2023-05-16T16:37:06.119Z,2.97
2023-05-16T16:39:35.624Z,1.67
2023-05-16T16:42:03.784Z,4.53
2023-05-16T16:44:31.920Z,5.57
2023-05-16T16:47:00.129Z,1.13
2023-05-16T16:49:28.346Z,0.60
2023-05-16T16:51:57.714Z,7.97
2023-05-16T16:54:25.996Z,1.33
2023-05-16T16:56:58.077Z,2.60
2023-05-16T16:59:26.240Z,1.40
2023-05-16T17:01:54.458Z,2.40
2023-05-16T17:04:22.705Z,1.80
2023-05-16T17:06:50.957Z,0.87
2023-05-16T17:09:19.786Z,1.23
2023-05-16T17:11:47.974Z,0.80
2023-05-16T17:14:17.566Z,2.20
2023-05-16T17:16:45.878Z,1.00
2023-05-16T17:19:14.174Z,3.43
2023-05-16T17:21:43.587Z,1.80
2023-05-16T17:24:11.777Z,2.20
2023-05-16T17:26:39.963Z,3.80
2023-05-16T17:29:08.162Z,2.77
2023-05-16T17:31:37.704Z,1.93
2023-05-16T17:34:05.880Z,7.53
2023-05-16T17:36:34.635Z,3.20
2023-05-16T17:39:07.706Z,3.50
2023-05-16T17:41:36.239Z,2.80
2023-05-16T17:44:06.736Z,2.80
2023-05-16T17:46:35.135Z,2.50
2023-05-16T17:49:04.804Z,0.90
2023-05-16T17:51:47.404Z,1.13
2023-05-16T17:54:16.850Z,2.03
2023-05-16T17:56:45.749Z,3.57
2023-05-16T17:59:14.939Z,3.70
2023-05-16T18:01:43.764Z,2.03
2023-05-16T18:04:14.375Z,5.43
2023-05-16T18:06:44.075Z,4.03
2023-05-16T18:09:15.005Z,3.73
2023-05-16T18:11:43.614Z,3.30
2023-05-16T18:14:12.868Z,2.80
2023-05-16T18:16:41.106Z,1.47
2023-05-16T18:19:09.556Z,2.63
2023-05-16T18:21:39.189Z,1.00
2023-05-16T18:24:08.677Z,2.20
2023-05-16T18:26:37.238Z,2.70
2023-05-16T18:29:05.599Z,2.90
2023-05-16T18:31:34.003Z,2.43
2023-05-16T18:34:02.857Z,0.90
2023-05-16T18:36:31.157Z,6.10
2023-05-16T18:39:00.769Z,2.77
2023-05-16T18:41:29.115Z,2.30
2023-05-16T18:43:57.240Z,1.33
2023-05-16T18:46:25.438Z,2.50
2023-05-16T18:48:57.573Z,1.83
2023-05-16T18:51:25.943Z,3.60
2023-05-16T18:53:54.211Z,1.83
2023-05-16T18:56:23.924Z,1.00
2023-05-16T18:58:52.116Z,2.13
2023-05-16T19:01:22.255Z,1.60
2023-05-16T19:03:50.579Z,1.97
2023-05-16T19:06:18.874Z,2.10
2023-05-16T19:08:48.364Z,0.87
2023-05-16T19:11:17.361Z,1.20
2023-05-16T19:13:47.562Z,1.40
2023-05-16T19:16:16.023Z,3.90
2023-05-16T19:18:44.371Z,1.83
2023-05-16T19:21:13.489Z,2.90
2023-05-16T19:23:41.883Z,1.20
2023-05-16T19:26:10.027Z,1.37
2023-05-16T19:28:40.464Z,2.20
2023-05-16T19:31:11.063Z,3.47
2023-05-16T19:33:39.249Z,1.70
2023-05-16T19:36:08.163Z,2.03
2023-05-16T19:38:36.332Z,3.33
2023-05-16T19:41:04.544Z,2.23
2023-05-16T19:43:33.739Z,8.27
2023-05-16T19:46:02.078Z,2.43
2023-05-16T19:48:31.752Z,1.43
2023-05-16T19:51:00.142Z,5.00
2023-05-16T19:53:28.316Z,2.40
2023-05-16T19:55:56.509Z,3.53
2023-05-16T19:58:25.982Z,3.10
2023-05-16T20:00:55.630Z,3.63
2023-05-16T20:03:24.840Z,2.50
2023-05-16T20:05:54.404Z,5.27
2023-05-16T20:08:22.636Z,1.23
2023-05-16T20:10:51.164Z,2.40
2023-05-16T20:13:20.435Z,2.97
2023-05-16T20:15:48.963Z,3.23
2023-05-16T20:18:17.102Z,2.60
2023-05-16T20:20:45.398Z,1.10
2023-05-16T20:23:15.197Z,1.77
2023-05-16T20:25:43.665Z,2.17
2023-05-16T20:28:11.849Z,6.27
2023-05-16T20:30:39.998Z,5.60
2023-05-16T20:33:08.575Z,4.47
2023-05-16T20:35:36.658Z,2.00
2023-05-16T20:38:04.786Z,2.37
2023-05-16T20:40:34.343Z,1.10
2023-05-16T20:43:02.518Z,1.40
2023-05-16T20:45:31.217Z,2.63
2023-05-16T20:47:59.546Z,3.33
2023-05-16T20:50:27.854Z,2.20
2023-05-16T20:52:56.043Z,10.60
2023-05-16T20:55:26.023Z,4.70
2023-05-16T20:57:55.673Z,6.43
2023-05-16T21:00:24.168Z,5.60
2023-05-16T21:02:52.365Z,0.90
2023-05-16T21:05:25.596Z,5.23
2023-05-16T21:07:54.209Z,2.40
2023-05-16T21:10:22.404Z,1.30
2023-05-16T21:12:50.736Z,3.37
2023-05-16T21:15:23.117Z,6.37
2023-05-16T21:17:52.267Z,3.10
2023-05-16T21:20:20.641Z,4.60
2023-05-16T21:22:48.766Z,0.90
2023-05-16T21:25:16.991Z,2.60
2023-05-16T21:27:45.273Z,3.43
2023-05-16T21:30:14.507Z,4.70
2023-05-16T21:32:44.029Z,2.40
2023-05-16T21:35:12.301Z,1.30
2023-05-16T21:37:40.805Z,2.37
2023-05-16T21:40:10.152Z,2.47
2023-05-16T21:42:38.291Z,3.10
2023-05-16T21:45:12.423Z,2.00
2023-05-16T21:47:40.650Z,2.70
2023-05-16T21:50:11.435Z,1.97
2023-05-16T21:52:41.201Z,1.20
2023-05-16T21:55:09.998Z,3.53
2023-05-16T21:57:38.172Z,2.73
2023-05-16T22:00:09.678Z,4.63
2023-05-16T22:02:38.247Z,3.10
2023-05-16T22:05:07.421Z,4.50
2023-05-16T22:07:37.208Z,3.43
2023-05-16T22:10:06.864Z,0.97
2023-05-16T22:12:35.149Z,2.50
2023-05-16T22:15:03.303Z,3.00
2023-05-16T22:17:32.672Z,1.27
2023-05-16T22:20:02.074Z,5.23
2023-05-16T22:22:30.317Z,4.83
2023-05-16T22:24:59.887Z,1.57
2023-05-16T22:27:28.071Z,7.67
2023-05-16T22:29:56.257Z,2.70
2023-05-16T22:32:24.400Z,1.80
2023-05-16T22:34:53.046Z,5.20
2023-05-16T22:37:21.198Z,2.50
2023-05-16T22:39:49.361Z,4.13
2023-05-16T22:42:18.852Z,2.77
2023-05-16T22:44:47.040Z,5.03
2023-05-16T22:47:15.278Z,2.60
2023-05-16T22:49:43.434Z,1.97
2023-05-16T22:52:11.592Z,4.43
2023-05-16T22:54:41.559Z,4.33
2023-05-16T22:57:09.850Z,3.10
2023-05-16T22:59:39.351Z,1.00
2023-05-16T23:02:07.538Z,2.67
2023-05-16T23:04:35.777Z,4.00
2023-05-16T23:07:04.079Z,3.63
2023-05-16T23:09:32.238Z,3.60
2023-05-16T23:12:00.503Z,3.10
2023-05-16T23:14:28.758Z,4.27
2023-05-16T23:16:58.269Z,5.13
2023-05-16T23:19:26.658Z,2.83
2023-05-16T23:21:54.955Z,2.50
2023-05-16T23:24:23.839Z,2.63
2023-05-16T23:26:52.010Z,1.60
2023-05-16T23:29:20.173Z,4.23
2023-05-16T23:31:48.327Z,5.37
2023-05-16T23:34:17.802Z,6.53
2023-05-16T23:36:46.118Z,7.73
2023-05-16T23:39:14.290Z,4.87
2023-05-16T23:41:42.425Z,3.23
2023-05-16T23:44:10.597Z,2.43
2023-05-16T23:46:38.721Z,3.60
2023-05-16T23:49:06.863Z,4.37
2023-05-16T23:51:55.515Z,5.20
2023-05-16T23:54:24.602Z,3.20
2023-05-16T23:56:52.782Z,7.73
2023-05-16T23:59:20.946Z,3.70
